sensor_id;sensor_type;location;lat;lon;timestamp;P1;durP1;ratioP1;P2;durP2;ratioP2
80776;SDS011;70169;51.262;6.336;2024-02-15T00:45:46;11.10;;;5.47;;
80776;SDS011;70169;51.262;6.336;2024-02-15T00:48:45;14.40;;;6.05;;
80776;SDS011;70169;51.262;6.336;2024-02-15T00:51:36;9.93;;;5.05;;
80776;SDS011;70169;51.262;6.336;2024-02-15T00:57:22;8.88;;;4.82;;
80776;SDS011;70169;51.262;6.336;2024-02-15T01:03:06;7.82;;;4.55;;
80776;SDS011;70169;51.262;6.336;2024-02-15T01:05:50;10.38;;;4.60;;
80776;SDS011;70169;51.262;6.336;2024-02-15T01:08:13;7.78;;;4.07;;
80776;SDS011;70169;51.262;6.336;2024-02-15T02:10:06;9.60;;;4.45;;
80776;SDS011;70169;51.262;6.336;2024-02-15T02:15:58;6.85;;;3.80;;
80776;SDS011;70169;51.262;6.336;2024-02-15T02:18:54;9.73;;;4.00;;
80776;SDS011;70169;51.262;6.336;2024-02-15T02:51:12;8.93;;;3.72;;
80776;SDS011;70169;51.262;6.336;2024-02-15T03:56:37;6.75;;;1.98;;
80776;SDS011;70169;51.262;6.336;2024-02-15T03:59:53;7.85;;;2.40;;
80776;SDS011;70169;51.262;6.336;2024-02-15T04:06:19;5.22;;;1.83;;
80776;SDS011;70169;51.262;6.336;2024-02-15T04:08:58;4.28;;;2.15;;
80776;SDS011;70169;51.262;6.336;2024-02-15T04:15:18;3.33;;;1.55;;
80776;SDS011;70169;51.262;6.336;2024-02-15T04:20:29;3.83;;;1.63;;
80776;SDS011;70169;51.262;6.336;2024-02-15T04:22:53;3.90;;;1.80;;
80776;SDS011;70169;51.262;6.336;2024-02-15T04:44:12;4.07;;;1.50;;
80776;SDS011;70169;51.262;6.336;2024-02-15T04:46:48;4.15;;;1.77;;
80776;SDS011;70169;51.262;6.336;2024-02-15T04:59:02;7.07;;;1.88;;
80776;SDS011;70169;51.262;6.336;2024-02-15T05:05:09;4.38;;;1.65;;
80776;SDS011;70169;51.262;6.336;2024-02-15T05:11:28;3.55;;;1.70;;
80776;SDS011;70169;51.262;6.336;2024-02-15T05:17:50;5.18;;;1.95;;
80776;SDS011;70169;51.262;6.336;2024-02-15T05:20:26;4.60;;;1.60;;
80776;SDS011;70169;51.262;6.336;2024-02-15T05:22:56;5.32;;;1.52;;
80776;SDS011;70169;51.262;6.336;2024-02-15T05:25:57;5.28;;;1.65;;
80776;SDS011;70169;51.262;6.336;2024-02-15T05:35:17;5.13;;;2.00;;
80776;SDS011;70169;51.262;6.336;2024-02-15T05:37:36;3.83;;;1.52;;
80776;SDS011;70169;51.262;6.336;2024-02-15T05:40:31;8.52;;;1.77;;
80776;SDS011;70169;51.262;6.336;2024-02-15T05:48:47;3.58;;;1.70;;
80776;SDS011;70169;51.262;6.336;2024-02-15T05:51:30;7.72;;;2.03;;
80776;SDS011;70169;51.262;6.336;2024-02-15T05:56:56;5.80;;;1.40;;
80776;SDS011;70169;51.262;6.336;2024-02-15T06:00:07;8.68;;;2.08;;
80776;SDS011;70169;51.262;6.336;2024-02-15T06:03:10;6.05;;;1.65;;
80776;SDS011;70169;51.262;6.336;2024-02-15T06:06:03;4.40;;;1.75;;
80776;SDS011;70169;51.262;6.336;2024-02-15T06:08:22;5.75;;;1.90;;
80776;SDS011;70169;51.262;6.336;2024-02-15T06:11:06;3.78;;;2.05;;
80776;SDS011;70169;51.262;6.336;2024-02-15T06:13:51;6.50;;;1.90;;
80776;SDS011;70169;51.262;6.336;2024-02-15T06:16:09;4.03;;;2.15;;
80776;SDS011;70169;51.262;6.336;2024-02-15T06:18:25;4.43;;;2.17;;
80776;SDS011;70169;51.262;6.336;2024-02-15T06:20:48;4.65;;;1.85;;
80776;SDS011;70169;51.262;6.336;2024-02-15T06:23:06;7.07;;;1.75;;
80776;SDS011;70169;51.262;6.336;2024-02-15T06:25:22;4.72;;;1.98;;
80776;SDS011;70169;51.262;6.336;2024-02-15T06:27:41;4.65;;;1.88;;
80776;SDS011;70169;51.262;6.336;2024-02-15T06:29:59;4.13;;;1.90;;
80776;SDS011;70169;51.262;6.336;2024-02-15T06:32:33;2.85;;;1.60;;
80776;SDS011;70169;51.262;6.336;2024-02-15T06:35:07;4.47;;;1.75;;
80776;SDS011;70169;51.262;6.336;2024-02-15T06:37:41;5.13;;;1.98;;
80776;SDS011;70169;51.262;6.336;2024-02-15T06:40:15;7.43;;;2.88;;
80776;SDS011;70169;51.262;6.336;2024-02-15T06:42:33;4.70;;;2.28;;
80776;SDS011;70169;51.262;6.336;2024-02-15T06:44:49;3.70;;;2.13;;
80776;SDS011;70169;51.262;6.336;2024-02-15T06:47:05;3.85;;;1.83;;
80776;SDS011;70169;51.262;6.336;2024-02-15T06:49:26;5.22;;;1.80;;
80776;SDS011;70169;51.262;6.336;2024-02-15T06:51:41;5.15;;;2.25;;
80776;SDS011;70169;51.262;6.336;2024-02-15T06:53:58;5.95;;;2.42;;
80776;SDS011;70169;51.262;6.336;2024-02-15T06:56:14;3.97;;;1.90;;
80776;SDS011;70169;51.262;6.336;2024-02-15T06:58:29;6.60;;;1.80;;
80776;SDS011;70169;51.262;6.336;2024-02-15T07:00:44;6.00;;;2.00;;
80776;SDS011;70169;51.262;6.336;2024-02-15T07:03:00;6.90;;;2.20;;
80776;SDS011;70169;51.262;6.336;2024-02-15T07:05:15;6.00;;;2.10;;
80776;SDS011;70169;51.262;6.336;2024-02-15T07:09:49;5.05;;;2.38;;
80776;SDS011;70169;51.262;6.336;2024-02-15T07:12:04;4.37;;;2.47;;
80776;SDS011;70169;51.262;6.336;2024-02-15T07:14:20;7.35;;;2.10;;
80776;SDS011;70169;51.262;6.336;2024-02-15T07:16:35;6.10;;;2.33;;
80776;SDS011;70169;51.262;6.336;2024-02-15T07:18:50;4.73;;;2.17;;
80776;SDS011;70169;51.262;6.336;2024-02-15T07:21:07;3.78;;;1.88;;
80776;SDS011;70169;51.262;6.336;2024-02-15T07:23:28;6.65;;;2.22;;
80776;SDS011;70169;51.262;6.336;2024-02-15T07:25:44;5.27;;;1.83;;
80776;SDS011;70169;51.262;6.336;2024-02-15T07:28:03;6.28;;;2.25;;
80776;SDS011;70169;51.262;6.336;2024-02-15T07:30:19;5.03;;;1.95;;
80776;SDS011;70169;51.262;6.336;2024-02-15T07:32:35;7.53;;;2.47;;
80776;SDS011;70169;51.262;6.336;2024-02-15T07:34:50;7.93;;;2.40;;
80776;SDS011;70169;51.262;6.336;2024-02-15T07:37:06;5.63;;;2.42;;
80776;SDS011;70169;51.262;6.336;2024-02-15T07:39:22;5.40;;;2.28;;
80776;SDS011;70169;51.262;6.336;2024-02-15T07:41:43;11.48;;;2.80;;
80776;SDS011;70169;51.262;6.336;2024-02-15T07:43:58;6.30;;;2.23;;
80776;SDS011;70169;51.262;6.336;2024-02-15T07:46:14;6.50;;;2.47;;
80776;SDS011;70169;51.262;6.336;2024-02-15T07:48:31;4.28;;;1.85;;
80776;SDS011;70169;51.262;6.336;2024-02-15T07:50:47;6.57;;;2.10;;
80776;SDS011;70169;51.262;6.336;2024-02-15T07:53:05;7.95;;;2.58;;
80776;SDS011;70169;51.262;6.336;2024-02-15T07:55:25;5.05;;;2.10;;
80776;SDS011;70169;51.262;6.336;2024-02-15T07:57:40;4.25;;;2.10;;
80776;SDS011;70169;51.262;6.336;2024-02-15T07:59:56;5.90;;;2.40;;
80776;SDS011;70169;51.262;6.336;2024-02-15T08:02:11;7.22;;;2.25;;
80776;SDS011;70169;51.262;6.336;2024-02-15T08:04:27;5.53;;;2.42;;
80776;SDS011;70169;51.262;6.336;2024-02-15T08:06:43;5.03;;;2.95;;
80776;SDS011;70169;51.262;6.336;2024-02-15T08:08:59;6.60;;;2.63;;
80776;SDS011;70169;51.262;6.336;2024-02-15T08:11:14;4.77;;;2.03;;
80776;SDS011;70169;51.262;6.336;2024-02-15T08:13:30;6.30;;;2.13;;
80776;SDS011;70169;51.262;6.336;2024-02-15T08:15:45;5.45;;;2.42;;
80776;SDS011;70169;51.262;6.336;2024-02-15T08:18:01;5.15;;;2.40;;
80776;SDS011;70169;51.262;6.336;2024-02-15T08:20:20;6.53;;;2.33;;
80776;SDS011;70169;51.262;6.336;2024-02-15T08:22:36;3.75;;;2.38;;
80776;SDS011;70169;51.262;6.336;2024-02-15T08:24:53;5.45;;;2.85;;
80776;SDS011;70169;51.262;6.336;2024-02-15T08:27:10;5.43;;;2.42;;
80776;SDS011;70169;51.262;6.336;2024-02-15T08:29:25;5.30;;;2.73;;
80776;SDS011;70169;51.262;6.336;2024-02-15T08:31:41;3.33;;;1.90;;
80776;SDS011;70169;51.262;6.336;2024-02-15T08:33:56;3.97;;;2.30;;
80776;SDS011;70169;51.262;6.336;2024-02-15T08:36:12;5.72;;;2.60;;
80776;SDS011;70169;51.262;6.336;2024-02-15T08:38:28;4.50;;;2.22;;
80776;SDS011;70169;51.262;6.336;2024-02-15T08:40:44;6.33;;;2.50;;
80776;SDS011;70169;51.262;6.336;2024-02-15T08:43:02;5.57;;;2.85;;
80776;SDS011;70169;51.262;6.336;2024-02-15T08:45:24;5.32;;;2.63;;
80776;SDS011;70169;51.262;6.336;2024-02-15T08:47:40;5.97;;;3.15;;
80776;SDS011;70169;51.262;6.336;2024-02-15T08:49:56;7.20;;;3.30;;
80776;SDS011;70169;51.262;6.336;2024-02-15T08:52:13;5.28;;;2.95;;
80776;SDS011;70169;51.262;6.336;2024-02-15T08:54:29;7.13;;;3.50;;
80776;SDS011;70169;51.262;6.336;2024-02-15T08:56:47;9.10;;;3.50;;
80776;SDS011;70169;51.262;6.336;2024-02-15T08:59:03;12.17;;;4.60;;
80776;SDS011;70169;51.262;6.336;2024-02-15T09:01:18;7.00;;;3.60;;
80776;SDS011;70169;51.262;6.336;2024-02-15T09:03:33;6.30;;;3.30;;
80776;SDS011;70169;51.262;6.336;2024-02-15T09:05:49;8.13;;;3.08;;
80776;SDS011;70169;51.262;6.336;2024-02-15T09:08:06;6.20;;;3.05;;
80776;SDS011;70169;51.262;6.336;2024-02-15T09:10:21;5.88;;;2.47;;
80776;SDS011;70169;51.262;6.336;2024-02-15T09:12:42;10.02;;;3.53;;
80776;SDS011;70169;51.262;6.336;2024-02-15T09:14:58;9.75;;;2.72;;
80776;SDS011;70169;51.262;6.336;2024-02-15T09:17:13;9.48;;;3.40;;
80776;SDS011;70169;51.262;6.336;2024-02-15T09:19:29;7.47;;;2.88;;
80776;SDS011;70169;51.262;6.336;2024-02-15T09:21:44;7.20;;;2.87;;
80776;SDS011;70169;51.262;6.336;2024-02-15T09:23:59;6.53;;;2.60;;
80776;SDS011;70169;51.262;6.336;2024-02-15T09:26:15;5.77;;;2.60;;
80776;SDS011;70169;51.262;6.336;2024-02-15T09:28:30;4.77;;;2.77;;
80776;SDS011;70169;51.262;6.336;2024-02-15T09:30:46;6.13;;;2.38;;
80776;SDS011;70169;51.262;6.336;2024-02-15T09:33:03;5.95;;;2.85;;
80776;SDS011;70169;51.262;6.336;2024-02-15T09:35:19;4.70;;;2.25;;
80776;SDS011;70169;51.262;6.336;2024-02-15T09:37:36;6.03;;;2.78;;
80776;SDS011;70169;51.262;6.336;2024-02-15T09:39:55;5.00;;;2.22;;
80776;SDS011;70169;51.262;6.336;2024-02-15T09:42:10;4.05;;;2.10;;
80776;SDS011;70169;51.262;6.336;2024-02-15T09:44:25;6.63;;;2.53;;
80776;SDS011;70169;51.262;6.336;2024-02-15T09:46:44;8.77;;;3.03;;
80776;SDS011;70169;51.262;6.336;2024-02-15T09:49:01;4.25;;;2.20;;
80776;SDS011;70169;51.262;6.336;2024-02-15T09:51:18;7.28;;;2.97;;
80776;SDS011;70169;51.262;6.336;2024-02-15T09:53:35;5.95;;;2.42;;
80776;SDS011;70169;51.262;6.336;2024-02-15T09:55:52;6.32;;;2.35;;
80776;SDS011;70169;51.262;6.336;2024-02-15T09:58:09;9.27;;;3.00;;
80776;SDS011;70169;51.262;6.336;2024-02-15T10:00:27;4.82;;;2.00;;
80776;SDS011;70169;51.262;6.336;2024-02-15T10:02:43;4.80;;;1.70;;
80776;SDS011;70169;51.262;6.336;2024-02-15T10:04:59;5.22;;;1.92;;
80776;SDS011;70169;51.262;6.336;2024-02-15T10:07:15;7.25;;;2.10;;
80776;SDS011;70169;51.262;6.336;2024-02-15T10:09:33;4.82;;;1.90;;
80776;SDS011;70169;51.262;6.336;2024-02-15T10:11:55;4.60;;;1.77;;
80776;SDS011;70169;51.262;6.336;2024-02-15T10:14:14;5.90;;;1.92;;
80776;SDS011;70169;51.262;6.336;2024-02-15T10:16:30;5.35;;;2.10;;
80776;SDS011;70169;51.262;6.336;2024-02-15T10:18:50;4.10;;;1.85;;
80776;SDS011;70169;51.262;6.336;2024-02-15T10:21:06;7.13;;;2.05;;
80776;SDS011;70169;51.262;6.336;2024-02-15T10:23:21;5.87;;;1.80;;
80776;SDS011;70169;51.262;6.336;2024-02-15T10:25:37;5.70;;;2.00;;
80776;SDS011;70169;51.262;6.336;2024-02-15T10:28:01;6.75;;;1.90;;
80776;SDS011;70169;51.262;6.336;2024-02-15T10:30:18;4.97;;;2.10;;
80776;SDS011;70169;51.262;6.336;2024-02-15T10:32:46;7.20;;;1.90;;
80776;SDS011;70169;51.262;6.336;2024-02-15T10:35:21;5.45;;;1.60;;
80776;SDS011;70169;51.262;6.336;2024-02-15T10:37:37;5.05;;;1.70;;
80776;SDS011;70169;51.262;6.336;2024-02-15T10:40:10;6.20;;;2.47;;
80776;SDS011;70169;51.262;6.336;2024-02-15T10:42:28;5.63;;;1.70;;
80776;SDS011;70169;51.262;6.336;2024-02-15T10:44:44;4.28;;;2.10;;
80776;SDS011;70169;51.262;6.336;2024-02-15T10:47:02;3.90;;;1.90;;
80776;SDS011;70169;51.262;6.336;2024-02-15T10:49:22;4.03;;;1.83;;
80776;SDS011;70169;51.262;6.336;2024-02-15T10:51:39;5.55;;;1.48;;
80776;SDS011;70169;51.262;6.336;2024-02-15T10:54:01;4.90;;;1.90;;
80776;SDS011;70169;51.262;6.336;2024-02-15T10:56:26;4.20;;;1.65;;
80776;SDS011;70169;51.262;6.336;2024-02-15T10:58:47;4.53;;;1.77;;
80776;SDS011;70169;51.262;6.336;2024-02-15T11:01:10;4.80;;;1.73;;
80776;SDS011;70169;51.262;6.336;2024-02-15T11:03:34;4.45;;;1.60;;
80776;SDS011;70169;51.262;6.336;2024-02-15T11:05:51;3.47;;;1.70;;
80776;SDS011;70169;51.262;6.336;2024-02-15T11:08:08;3.50;;;1.80;;
80776;SDS011;70169;51.262;6.336;2024-02-15T11:12:40;6.07;;;1.92;;
80776;SDS011;70169;51.262;6.336;2024-02-15T11:14:57;6.82;;;2.08;;
80776;SDS011;70169;51.262;6.336;2024-02-15T11:17:13;4.65;;;2.00;;
80776;SDS011;70169;51.262;6.336;2024-02-15T11:19:54;6.68;;;2.35;;
80776;SDS011;70169;51.262;6.336;2024-02-15T11:22:11;5.68;;;1.83;;
80776;SDS011;70169;51.262;6.336;2024-02-15T11:24:32;6.05;;;2.00;;
80776;SDS011;70169;51.262;6.336;2024-02-15T11:26:47;3.83;;;1.65;;
80776;SDS011;70169;51.262;6.336;2024-02-15T11:29:02;5.72;;;2.00;;
80776;SDS011;70169;51.262;6.336;2024-02-15T11:31:53;4.50;;;1.67;;
80776;SDS011;70169;51.262;6.336;2024-02-15T11:44:43;4.65;;;1.60;;
80776;SDS011;70169;51.262;6.336;2024-02-15T11:46:59;3.57;;;1.40;;
80776;SDS011;70169;51.262;6.336;2024-02-15T11:49:19;3.35;;;1.45;;
80776;SDS011;70169;51.262;6.336;2024-02-15T11:51:35;3.72;;;1.30;;
80776;SDS011;70169;51.262;6.336;2024-02-15T11:54:03;3.08;;;1.58;;
80776;SDS011;70169;51.262;6.336;2024-02-15T11:56:24;2.22;;;1.15;;
80776;SDS011;70169;51.262;6.336;2024-02-15T11:58:40;3.20;;;1.40;;
80776;SDS011;70169;51.262;6.336;2024-02-15T12:01:11;4.07;;;1.40;;
80776;SDS011;70169;51.262;6.336;2024-02-15T12:03:45;3.03;;;1.33;;
80776;SDS011;70169;51.262;6.336;2024-02-15T12:06:30;2.90;;;1.17;;
80776;SDS011;70169;51.262;6.336;2024-02-15T12:09:04;3.50;;;1.50;;
80776;SDS011;70169;51.262;6.336;2024-02-15T12:11:37;4.43;;;1.67;;
80776;SDS011;70169;51.262;6.336;2024-02-15T12:14:17;2.85;;;1.00;;
80776;SDS011;70169;51.262;6.336;2024-02-15T12:16:59;4.32;;;1.45;;
80776;SDS011;70169;51.262;6.336;2024-02-15T12:19:42;3.40;;;1.25;;
80776;SDS011;70169;51.262;6.336;2024-02-15T12:22:19;5.53;;;1.50;;
80776;SDS011;70169;51.262;6.336;2024-02-15T12:28:31;2.28;;;1.08;;
80776;SDS011;70169;51.262;6.336;2024-02-15T12:30:54;2.90;;;1.40;;
80776;SDS011;70169;51.262;6.336;2024-02-15T12:33:10;3.05;;;1.15;;
80776;SDS011;70169;51.262;6.336;2024-02-15T12:35:37;2.42;;;1.10;;
80776;SDS011;70169;51.262;6.336;2024-02-15T12:43:53;4.07;;;1.30;;
80776;SDS011;70169;51.262;6.336;2024-02-15T12:46:09;4.85;;;1.13;;
80776;SDS011;70169;51.262;6.336;2024-02-15T12:48:27;3.00;;;1.10;;
80776;SDS011;70169;51.262;6.336;2024-02-15T12:57:52;2.83;;;1.10;;
80776;SDS011;70169;51.262;6.336;2024-02-15T13:03:59;2.90;;;1.02;;
80776;SDS011;70169;51.262;6.336;2024-02-15T13:09:31;3.38;;;1.00;;
80776;SDS011;70169;51.262;6.336;2024-02-15T13:11:46;4.00;;;1.10;;
80776;SDS011;70169;51.262;6.336;2024-02-15T13:14:02;3.60;;;1.13;;
80776;SDS011;70169;51.262;6.336;2024-02-15T13:21:51;3.90;;;1.50;;
80776;SDS011;70169;51.262;6.336;2024-02-15T13:24:23;4.10;;;1.40;;
80776;SDS011;70169;51.262;6.336;2024-02-15T13:26:41;4.47;;;1.60;;
80776;SDS011;70169;51.262;6.336;2024-02-15T13:29:09;3.97;;;1.65;;
80776;SDS011;70169;51.262;6.336;2024-02-15T13:31:27;2.75;;;1.48;;
80776;SDS011;70169;51.262;6.336;2024-02-15T13:33:42;3.43;;;1.33;;
80776;SDS011;70169;51.262;6.336;2024-02-15T13:35:57;3.38;;;1.35;;
80776;SDS011;70169;51.262;6.336;2024-02-15T13:38:13;4.32;;;1.30;;
80776;SDS011;70169;51.262;6.336;2024-02-15T13:40:37;2.92;;;0.95;;
80776;SDS011;70169;51.262;6.336;2024-02-15T13:42:54;2.33;;;1.10;;
80776;SDS011;70169;51.262;6.336;2024-02-15T13:45:13;1.90;;;0.80;;
80776;SDS011;70169;51.262;6.336;2024-02-15T13:47:28;2.33;;;1.20;;
80776;SDS011;70169;51.262;6.336;2024-02-15T13:49:46;2.53;;;1.13;;
80776;SDS011;70169;51.262;6.336;2024-02-15T13:52:02;2.70;;;1.23;;
80776;SDS011;70169;51.262;6.336;2024-02-15T13:57:07;2.35;;;0.93;;
80776;SDS011;70169;51.262;6.336;2024-02-15T13:59:36;4.40;;;1.48;;
80776;SDS011;70169;51.262;6.336;2024-02-15T14:01:52;4.47;;;1.47;;
80776;SDS011;70169;51.262;6.336;2024-02-15T14:04:08;3.25;;;1.00;;
80776;SDS011;70169;51.262;6.336;2024-02-15T14:06:24;3.03;;;1.50;;
80776;SDS011;70169;51.262;6.336;2024-02-15T14:08:39;4.67;;;1.63;;
80776;SDS011;70169;51.262;6.336;2024-02-15T14:10:55;4.63;;;2.00;;
80776;SDS011;70169;51.262;6.336;2024-02-15T14:56:34;4.68;;;2.10;;
80776;SDS011;70169;51.262;6.336;2024-02-15T14:58:49;4.20;;;1.65;;
80776;SDS011;70169;51.262;6.336;2024-02-15T15:01:04;3.23;;;1.30;;
80776;SDS011;70169;51.262;6.336;2024-02-15T15:03:20;3.15;;;1.30;;
80776;SDS011;70169;51.262;6.336;2024-02-15T15:05:38;2.80;;;1.30;;
80776;SDS011;70169;51.262;6.336;2024-02-15T15:08:13;2.40;;;1.33;;
80776;SDS011;70169;51.262;6.336;2024-02-15T15:10:47;3.38;;;1.52;;
80776;SDS011;70169;51.262;6.336;2024-02-15T15:13:21;4.80;;;2.00;;
80776;SDS011;70169;51.262;6.336;2024-02-15T15:15:38;3.60;;;1.88;;
80776;SDS011;70169;51.262;6.336;2024-02-15T15:20:16;4.20;;;2.00;;
80776;SDS011;70169;51.262;6.336;2024-02-15T15:22:32;5.40;;;1.88;;
80776;SDS011;70169;51.262;6.336;2024-02-15T15:24:49;5.15;;;2.00;;
80776;SDS011;70169;51.262;6.336;2024-02-15T15:27:04;5.00;;;2.27;;
80776;SDS011;70169;51.262;6.336;2024-02-15T15:29:20;3.75;;;1.90;;
80776;SDS011;70169;51.262;6.336;2024-02-15T15:31:35;3.08;;;1.92;;
80776;SDS011;70169;51.262;6.336;2024-02-15T15:33:50;4.47;;;2.03;;
80776;SDS011;70169;51.262;6.336;2024-02-15T15:36:07;4.88;;;2.20;;
80776;SDS011;70169;51.262;6.336;2024-02-15T15:38:26;4.10;;;1.70;;
80776;SDS011;70169;51.262;6.336;2024-02-15T15:40:44;3.42;;;1.70;;
80776;SDS011;70169;51.262;6.336;2024-02-15T15:43:08;4.03;;;1.70;;
80776;SDS011;70169;51.262;6.336;2024-02-15T15:45:25;3.38;;;1.75;;
80776;SDS011;70169;51.262;6.336;2024-02-15T15:47:41;4.07;;;1.85;;
80776;SDS011;70169;51.262;6.336;2024-02-15T15:49:57;2.70;;;1.35;;
80776;SDS011;70169;51.262;6.336;2024-02-15T15:52:13;4.05;;;1.70;;
80776;SDS011;70169;51.262;6.336;2024-02-15T15:54:31;4.25;;;1.70;;
80776;SDS011;70169;51.262;6.336;2024-02-15T15:56:49;5.93;;;2.13;;
80776;SDS011;70169;51.262;6.336;2024-02-15T15:59:04;4.53;;;1.83;;
80776;SDS011;70169;51.262;6.336;2024-02-15T16:01:20;4.20;;;1.63;;
80776;SDS011;70169;51.262;6.336;2024-02-15T16:03:36;9.65;;;3.05;;
80776;SDS011;70169;51.262;6.336;2024-02-15T16:05:51;11.50;;;3.53;;
80776;SDS011;70169;51.262;6.336;2024-02-15T16:08:07;12.63;;;3.78;;
80776;SDS011;70169;51.262;6.336;2024-02-15T16:10:22;8.02;;;3.05;;
80776;SDS011;70169;51.262;6.336;2024-02-15T16:12:40;6.90;;;2.47;;
80776;SDS011;70169;51.262;6.336;2024-02-15T16:14:57;6.68;;;2.95;;
80776;SDS011;70169;51.262;6.336;2024-02-15T16:17:20;6.50;;;2.60;;
80776;SDS011;70169;51.262;6.336;2024-02-15T16:19:51;5.28;;;2.28;;
80776;SDS011;70169;51.262;6.336;2024-02-15T16:22:12;5.80;;;1.92;;
80776;SDS011;70169;51.262;6.336;2024-02-15T16:24:28;3.88;;;1.60;;
80776;SDS011;70169;51.262;6.336;2024-02-15T16:26:49;4.45;;;1.48;;
80776;SDS011;70169;51.262;6.336;2024-02-15T16:29:16;3.90;;;1.40;;
80776;SDS011;70169;51.262;6.336;2024-02-15T16:31:40;5.80;;;1.70;;
80776;SDS011;70169;51.262;6.336;2024-02-15T16:33:55;3.58;;;1.88;;
80776;SDS011;70169;51.262;6.336;2024-02-15T16:36:11;3.83;;;1.75;;
80776;SDS011;70169;51.262;6.336;2024-02-15T16:38:27;5.05;;;2.03;;
80776;SDS011;70169;51.262;6.336;2024-02-15T16:40:42;4.10;;;1.57;;
80776;SDS011;70169;51.262;6.336;2024-02-15T16:42:58;3.45;;;1.15;;
80776;SDS011;70169;51.262;6.336;2024-02-15T16:45:14;3.00;;;1.23;;
80776;SDS011;70169;51.262;6.336;2024-02-15T16:47:31;2.10;;;0.98;;
80776;SDS011;70169;51.262;6.336;2024-02-15T16:49:47;3.20;;;1.10;;
80776;SDS011;70169;51.262;6.336;2024-02-15T16:52:02;2.33;;;1.20;;
80776;SDS011;70169;51.262;6.336;2024-02-15T16:54:18;6.05;;;1.42;;
80776;SDS011;70169;51.262;6.336;2024-02-15T16:56:34;2.70;;;1.27;;
80776;SDS011;70169;51.262;6.336;2024-02-15T16:58:51;2.92;;;1.10;;
80776;SDS011;70169;51.262;6.336;2024-02-15T17:01:08;3.30;;;1.38;;
80776;SDS011;70169;51.262;6.336;2024-02-15T17:03:24;7.40;;;2.92;;
80776;SDS011;70169;51.262;6.336;2024-02-15T17:05:39;4.27;;;2.10;;
80776;SDS011;70169;51.262;6.336;2024-02-15T17:07:56;3.55;;;1.42;;
80776;SDS011;70169;51.262;6.336;2024-02-15T17:10:11;3.92;;;1.50;;
80776;SDS011;70169;51.262;6.336;2024-02-15T17:12:26;3.85;;;1.35;;
80776;SDS011;70169;51.262;6.336;2024-02-15T17:14:43;5.00;;;1.45;;
80776;SDS011;70169;51.262;6.336;2024-02-15T17:16:58;3.00;;;1.40;;
80776;SDS011;70169;51.262;6.336;2024-02-15T17:19:14;4.22;;;1.23;;
80776;SDS011;70169;51.262;6.336;2024-02-15T17:21:29;3.53;;;1.55;;
80776;SDS011;70169;51.262;6.336;2024-02-15T17:23:47;3.58;;;1.27;;
80776;SDS011;70169;51.262;6.336;2024-02-15T17:26:11;4.57;;;1.52;;
80776;SDS011;70169;51.262;6.336;2024-02-15T17:28:27;3.83;;;1.80;;
80776;SDS011;70169;51.262;6.336;2024-02-15T17:30:42;5.22;;;1.67;;
80776;SDS011;70169;51.262;6.336;2024-02-15T17:33:00;4.97;;;1.60;;
80776;SDS011;70169;51.262;6.336;2024-02-15T17:35:19;5.40;;;1.73;;
80776;SDS011;70169;51.262;6.336;2024-02-15T17:38:14;3.65;;;1.98;;
80776;SDS011;70169;51.262;6.336;2024-02-15T17:41:28;6.13;;;1.95;;
80776;SDS011;70169;51.262;6.336;2024-02-15T17:43:53;5.47;;;2.03;;
80776;SDS011;70169;51.262;6.336;2024-02-15T17:46:47;6.15;;;2.33;;
80776;SDS011;70169;51.262;6.336;2024-02-15T17:51:56;5.88;;;1.80;;
80776;SDS011;70169;51.262;6.336;2024-02-15T17:54:21;5.88;;;3.08;;
80776;SDS011;70169;51.262;6.336;2024-02-15T17:56:41;6.88;;;2.80;;
80776;SDS011;70169;51.262;6.336;2024-02-15T18:05:31;4.72;;;2.17;;
80776;SDS011;70169;51.262;6.336;2024-02-15T18:07:50;5.03;;;2.60;;
80776;SDS011;70169;51.262;6.336;2024-02-15T18:10:08;4.88;;;2.10;;
80776;SDS011;70169;51.262;6.336;2024-02-15T18:12:36;4.07;;;2.00;;
80776;SDS011;70169;51.262;6.336;2024-02-15T18:15:00;4.57;;;2.15;;
80776;SDS011;70169;51.262;6.336;2024-02-15T18:17:15;6.32;;;2.42;;
80776;SDS011;70169;51.262;6.336;2024-02-15T18:19:33;5.38;;;1.80;;
80776;SDS011;70169;51.262;6.336;2024-02-15T18:21:48;3.13;;;1.70;;
80776;SDS011;70169;51.262;6.336;2024-02-15T18:24:04;4.32;;;1.70;;
80776;SDS011;70169;51.262;6.336;2024-02-15T18:26:20;5.55;;;1.85;;
80776;SDS011;70169;51.262;6.336;2024-02-15T18:28:36;10.50;;;5.27;;
80776;SDS011;70169;51.262;6.336;2024-02-15T18:30:51;8.53;;;4.07;;
80776;SDS011;70169;51.262;6.336;2024-02-15T18:33:07;7.68;;;3.45;;
80776;SDS011;70169;51.262;6.336;2024-02-15T18:35:27;6.07;;;2.90;;
80776;SDS011;70169;51.262;6.336;2024-02-15T18:37:43;4.60;;;2.80;;
80776;SDS011;70169;51.262;6.336;2024-02-15T18:40:00;4.70;;;2.10;;
80776;SDS011;70169;51.262;6.336;2024-02-15T18:42:18;6.95;;;2.97;;
80776;SDS011;70169;51.262;6.336;2024-02-15T18:47:21;6.78;;;2.58;;
80776;SDS011;70169;51.262;6.336;2024-02-15T18:49:43;5.57;;;2.58;;
80776;SDS011;70169;51.262;6.336;2024-02-15T18:52:07;4.97;;;2.65;;
80776;SDS011;70169;51.262;6.336;2024-02-15T18:57:35;7.38;;;3.10;;
80776;SDS011;70169;51.262;6.336;2024-02-15T19:00:10;4.43;;;2.70;;
80776;SDS011;70169;51.262;6.336;2024-02-15T19:02:29;5.70;;;2.50;;
80776;SDS011;70169;51.262;6.336;2024-02-15T19:04:44;4.40;;;2.20;;
80776;SDS011;70169;51.262;6.336;2024-02-15T19:07:03;4.25;;;2.17;;
80776;SDS011;70169;51.262;6.336;2024-02-15T19:09:18;4.15;;;2.30;;
80776;SDS011;70169;51.262;6.336;2024-02-15T19:11:35;7.60;;;2.65;;
80776;SDS011;70169;51.262;6.336;2024-02-15T19:13:53;7.45;;;2.80;;
80776;SDS011;70169;51.262;6.336;2024-02-15T19:16:08;4.95;;;2.53;;
80776;SDS011;70169;51.262;6.336;2024-02-15T19:18:26;4.07;;;2.22;;
80776;SDS011;70169;51.262;6.336;2024-02-15T19:20:49;3.67;;;2.25;;
80776;SDS011;70169;51.262;6.336;2024-02-15T19:23:10;4.03;;;1.90;;
80776;SDS011;70169;51.262;6.336;2024-02-15T19:27:45;5.45;;;2.28;;
80776;SDS011;70169;51.262;6.336;2024-02-15T19:30:01;6.07;;;2.10;;
80776;SDS011;70169;51.262;6.336;2024-02-15T19:32:16;5.50;;;1.90;;
80776;SDS011;70169;51.262;6.336;2024-02-15T19:34:32;3.35;;;2.17;;
80776;SDS011;70169;51.262;6.336;2024-02-15T19:36:50;3.37;;;2.00;;
80776;SDS011;70169;51.262;6.336;2024-02-15T19:39:16;4.22;;;1.85;;
80776;SDS011;70169;51.262;6.336;2024-02-15T19:41:35;5.63;;;2.20;;
80776;SDS011;70169;51.262;6.336;2024-02-15T19:43:51;4.65;;;2.10;;
80776;SDS011;70169;51.262;6.336;2024-02-15T19:46:10;3.30;;;1.52;;
80776;SDS011;70169;51.262;6.336;2024-02-15T19:48:25;5.03;;;1.73;;
80776;SDS011;70169;51.262;6.336;2024-02-15T19:50:48;4.40;;;1.80;;
80776;SDS011;70169;51.262;6.336;2024-02-15T19:53:11;4.22;;;1.65;;
80776;SDS011;70169;51.262;6.336;2024-02-15T19:55:29;5.88;;;2.40;;
80776;SDS011;70169;51.262;6.336;2024-02-15T19:57:45;7.32;;;3.15;;
80776;SDS011;70169;51.262;6.336;2024-02-15T20:00:01;8.93;;;3.30;;
80776;SDS011;70169;51.262;6.336;2024-02-15T20:02:16;7.63;;;3.28;;
80776;SDS011;70169;51.262;6.336;2024-02-15T20:04:32;6.60;;;2.80;;
80776;SDS011;70169;51.262;6.336;2024-02-15T20:06:48;5.45;;;2.78;;
80776;SDS011;70169;51.262;6.336;2024-02-15T20:09:03;4.50;;;2.10;;
80776;SDS011;70169;51.262;6.336;2024-02-15T20:11:23;4.30;;;1.85;;
80776;SDS011;70169;51.262;6.336;2024-02-15T20:13:40;3.58;;;1.88;;
80776;SDS011;70169;51.262;6.336;2024-02-15T20:15:56;3.83;;;1.80;;
80776;SDS011;70169;51.262;6.336;2024-02-15T20:18:16;3.35;;;1.73;;
80776;SDS011;70169;51.262;6.336;2024-02-15T20:20:35;4.35;;;2.00;;
80776;SDS011;70169;51.262;6.336;2024-02-15T20:23:11;6.30;;;1.80;;
80776;SDS011;70169;51.262;6.336;2024-02-15T20:25:28;4.10;;;2.05;;
80776;SDS011;70169;51.262;6.336;2024-02-15T20:27:44;4.68;;;1.83;;
80776;SDS011;70169;51.262;6.336;2024-02-15T20:30:02;3.65;;;1.95;;
80776;SDS011;70169;51.262;6.336;2024-02-15T20:32:19;3.80;;;1.63;;
80776;SDS011;70169;51.262;6.336;2024-02-15T20:34:37;3.70;;;1.80;;